sensor_id;sensor_type;location;lat;lon;timestamp;pressure;altitude;pressure_sealevel;temperature;humidity
22255;BME280;11296;42.684;23.322;2022-09-09T00:00:27;95447.38;;;19.09;100.00
22255;BME280;11296;42.684;23.322;2022-09-09T00:03:46;95407.59;;;18.95;100.00
22255;BME280;11296;42.684;23.322;2022-09-09T00:06:43;95424.53;;;19.12;100.00
22255;BME280;11296;42.684;23.322;2022-09-09T00:09:13;95388.72;;;18.78;100.00
22255;BME280;11296;42.684;23.322;2022-09-09T00:11:43;95394.41;;;18.80;100.00
22255;BME280;11296;42.684;23.322;2022-09-09T00:14:26;95452.25;;;19.16;100.00
22255;BME280;11296;42.684;23.322;2022-09-09T00:17:04;95425.41;;;18.77;100.00
22255;BME280;11296;42.684;23.322;2022-09-09T00:19:41;95424.91;;;18.79;100.00
22255;BME280;11296;42.684;23.322;2022-09-09T00:22:19;95428.63;;;18.76;100.00
22255;BME280;11296;42.684;23.322;2022-09-09T00:24:56;95376.97;;;18.40;100.00
22255;BME280;11296;42.684;23.322;2022-09-09T00:27:50;95407.19;;;18.67;100.00
22255;BME280;11296;42.684;23.322;2022-09-09T00:30:26;95360.94;;;18.31;100.00
22255;BME280;11296;42.684;23.322;2022-09-09T00:33:00;95370.28;;;18.41;100.00
22255;BME280;11296;42.684;23.322;2022-09-09T00:35:38;95355.38;;;18.42;100.00
22255;BME280;11296;42.684;23.322;2022-09-09T00:38:21;95359.63;;;18.38;100.00
22255;BME280;11296;42.684;23.322;2022-09-09T00:43:35;95353.28;;;18.30;100.00
22255;BME280;11296;42.684;23.322;2022-09-09T00:46:32;95397.34;;;18.58;100.00
22255;BME280;11296;42.684;23.322;2022-09-09T00:55:55;95369.44;;;18.22;100.00
22255;BME280;11296;42.684;23.322;2022-09-09T00:58:35;95348.50;;;18.12;100.00
22255;BME280;11296;42.684;23.322;2022-09-09T01:01:09;95388.81;;;18.43;100.00
22255;BME280;11296;42.684;23.322;2022-09-09T01:03:59;95391.72;;;18.50;100.00
22255;BME280;11296;42.684;23.322;2022-09-09T01:06:34;95345.00;;;18.17;100.00
22255;BME280;11296;42.684;23.322;2022-09-09T01:09:25;95415.41;;;18.61;100.00
22255;BME280;11296;42.684;23.322;2022-09-09T01:17:44;95365.13;;;18.08;100.00
22255;BME280;11296;42.684;23.322;2022-09-09T01:20:18;95408.41;;;18.12;100.00
22255;BME280;11296;42.684;23.322;2022-09-09T01:28:33;95365.53;;;17.88;100.00
22255;BME280;11296;42.684;23.322;2022-09-09T01:31:18;95387.72;;;17.98;100.00
22255;BME280;11296;42.684;23.322;2022-09-09T01:33:47;95352.34;;;17.68;100.00
22255;BME280;11296;42.684;23.322;2022-09-09T01:36:26;95419.16;;;18.28;100.00
22255;BME280;11296;42.684;23.322;2022-09-09T01:38:54;95418.09;;;18.07;100.00
22255;BME280;11296;42.684;23.322;2022-09-09T01:41:23;95438.25;;;18.28;100.00
22255;BME280;11296;42.684;23.322;2022-09-09T01:44:05;95438.59;;;18.14;100.00
22255;BME280;11296;42.684;23.322;2022-09-09T01:46:36;95375.03;;;17.76;100.00
22255;BME280;11296;42.684;23.322;2022-09-09T01:49:24;95367.06;;;17.84;100.00
22255;BME280;11296;42.684;23.322;2022-09-09T01:52:04;95375.34;;;17.67;100.00
22255;BME280;11296;42.684;23.322;2022-09-09T01:54:39;95404.88;;;17.87;100.00
22255;BME280;11296;42.684;23.322;2022-09-09T01:57:33;95406.53;;;17.96;100.00
22255;BME280;11296;42.684;23.322;2022-09-09T02:00:11;95415.69;;;17.98;100.00
22255;BME280;11296;42.684;23.322;2022-09-09T02:03:05;95387.63;;;17.79;100.00
22255;BME280;11296;42.684;23.322;2022-09-09T02:06:02;95389.81;;;17.86;100.00
22255;BME280;11296;42.684;23.322;2022-09-09T02:08:52;95403.97;;;17.79;100.00
22255;BME280;11296;42.684;23.322;2022-09-09T02:11:26;95408.41;;;17.82;100.00
22255;BME280;11296;42.684;23.322;2022-09-09T02:14:06;95391.31;;;17.82;100.00
22255;BME280;11296;42.684;23.322;2022-09-09T02:16:44;95389.09;;;17.80;100.00
22255;BME280;11296;42.684;23.322;2022-09-09T02:19:32;95415.50;;;17.91;100.00
22255;BME280;11296;42.684;23.322;2022-09-09T02:22:26;95437.06;;;17.83;100.00
22255;BME280;11296;42.684;23.322;2022-09-09T02:24:57;95356.22;;;17.37;100.00
22255;BME280;11296;42.684;23.322;2022-09-09T02:27:27;95384.81;;;17.55;100.00
22255;BME280;11296;42.684;23.322;2022-09-09T02:29:59;95378.16;;;17.45;100.00
22255;BME280;11296;42.684;23.322;2022-09-09T02:32:45;95394.94;;;17.60;100.00
22255;BME280;11296;42.684;23.322;2022-09-09T02:35:20;95418.78;;;17.84;100.00
22255;BME280;11296;42.684;23.322;2022-09-09T02:37:48;95437.53;;;17.87;100.00
22255;BME280;11296;42.684;23.322;2022-09-09T02:40:19;95400.63;;;17.62;100.00
22255;BME280;11296;42.684;23.322;2022-09-09T02:42:55;95380.66;;;17.43;100.00
22255;BME280;11296;42.684;23.322;2022-09-09T02:45:53;95369.81;;;17.37;100.00
22255;BME280;11296;42.684;23.322;2022-09-09T02:51:18;95391.56;;;17.37;100.00
22255;BME280;11296;42.684;23.322;2022-09-09T02:56:43;95404.88;;;17.52;100.00
22255;BME280;11296;42.684;23.322;2022-09-09T02:59:11;95425.88;;;17.57;100.00
22255;BME280;11296;42.684;23.322;2022-09-09T03:01:41;95415.00;;;17.46;100.00
22255;BME280;11296;42.684;23.322;2022-09-09T03:04:09;95429.59;;;17.43;100.00
22255;BME280;11296;42.684;23.322;2022-09-09T03:06:35;95426.13;;;17.48;100.00
22255;BME280;11296;42.684;23.322;2022-09-09T03:09:13;95388.47;;;17.17;100.00
22255;BME280;11296;42.684;23.322;2022-09-09T03:11:43;95414.59;;;17.31;100.00
22255;BME280;11296;42.684;23.322;2022-09-09T03:14:14;95396.81;;;17.30;100.00
22255;BME280;11296;42.684;23.322;2022-09-09T03:16:40;95381.09;;;17.12;100.00
22255;BME280;11296;42.684;23.322;2022-09-09T03:19:07;95397.53;;;17.36;100.00
22255;BME280;11296;42.684;23.322;2022-09-09T03:21:52;95368.94;;;17.18;100.00
22255;BME280;11296;42.684;23.322;2022-09-09T03:24:22;95385.22;;;17.29;100.00
22255;BME280;11296;42.684;23.322;2022-09-09T03:26:51;95378.63;;;17.14;100.00
22255;BME280;11296;42.684;23.322;2022-09-09T03:29:21;95380.81;;;17.15;100.00
22255;BME280;11296;42.684;23.322;2022-09-09T03:31:48;95418.78;;;17.32;100.00
22255;BME280;11296;42.684;23.322;2022-09-09T03:34:13;95417.31;;;17.31;100.00
22255;BME280;11296;42.684;23.322;2022-09-09T03:36:40;95382.31;;;17.11;100.00
22255;BME280;11296;42.684;23.322;2022-09-09T03:39:11;95373.00;;;17.00;100.00
22255;BME280;11296;42.684;23.322;2022-09-09T03:41:41;95423.47;;;17.37;100.00
22255;BME280;11296;42.684;23.322;2022-09-09T03:44:13;95406.75;;;17.22;100.00
22255;BME280;11296;42.684;23.322;2022-09-09T03:50:48;95424.03;;;17.19;100.00
22255;BME280;11296;42.684;23.322;2022-09-09T03:53:34;95421.06;;;17.22;100.00
22255;BME280;11296;42.684;23.322;2022-09-09T04:00:34;95425.06;;;17.16;100.00
22255;BME280;11296;42.684;23.322;2022-09-09T04:03:03;95406.56;;;17.03;100.00
22255;BME280;11296;42.684;23.322;2022-09-09T04:05:32;95432.94;;;17.25;100.00
22255;BME280;11296;42.684;23.322;2022-09-09T04:08:04;95442.84;;;17.17;100.00
22255;BME280;11296;42.684;23.322;2022-09-09T04:10:33;95441.41;;;17.04;100.00
22255;BME280;11296;42.684;23.322;2022-09-09T04:13:03;95460.91;;;17.09;100.00
22255;BME280;11296;42.684;23.322;2022-09-09T04:15:32;95431.81;;;16.92;100.00
22255;BME280;11296;42.684;23.322;2022-09-09T04:18:01;95405.91;;;16.75;100.00
22255;BME280;11296;42.684;23.322;2022-09-09T04:20:34;95396.81;;;16.67;100.00
22255;BME280;11296;42.684;23.322;2022-09-09T04:23:01;95427.63;;;16.91;100.00
22255;BME280;11296;42.684;23.322;2022-09-09T04:25:32;95456.94;;;17.10;100.00
22255;BME280;11296;42.684;23.322;2022-09-09T04:28:03;95410.06;;;16.98;100.00
22255;BME280;11296;42.684;23.322;2022-09-09T04:30:33;95435.47;;;17.12;100.00
22255;BME280;11296;42.684;23.322;2022-09-09T04:33:25;95446.97;;;17.34;100.00
22255;BME280;11296;42.684;23.322;2022-09-09T04:39:49;95425.44;;;17.42;100.00
22255;BME280;11296;42.684;23.322;2022-09-09T04:42:20;95485.41;;;17.66;100.00
22255;BME280;11296;42.684;23.322;2022-09-09T04:44:47;95440.94;;;17.58;100.00
22255;BME280;11296;42.684;23.322;2022-09-09T04:51:21;95460.69;;;17.64;100.00
22255;BME280;11296;42.684;23.322;2022-09-09T04:53:52;95425.38;;;17.47;100.00
22255;BME280;11296;42.684;23.322;2022-09-09T04:56:21;95390.38;;;17.33;100.00
22255;BME280;11296;42.684;23.322;2022-09-09T04:59:06;95379.72;;;17.40;100.00
22255;BME280;11296;42.684;23.322;2022-09-09T05:01:41;95412.44;;;17.70;100.00
22255;BME280;11296;42.684;23.322;2022-09-09T05:08:12;95398.13;;;17.99;100.00
22255;BME280;11296;42.684;23.322;2022-09-09T05:10:38;95397.09;;;18.02;100.00
22255;BME280;11296;42.684;23.322;2022-09-09T05:13:11;95409.22;;;18.31;100.00
22255;BME280;11296;42.684;23.322;2022-09-09T05:15:37;95390.38;;;18.33;100.00
22255;BME280;11296;42.684;23.322;2022-09-09T05:18:05;95441.25;;;18.79;100.00
22255;BME280;11296;42.684;23.322;2022-09-09T05:20:32;95413.41;;;18.62;100.00
22255;BME280;11296;42.684;23.322;2022-09-09T05:23:08;95374.31;;;18.59;100.00
22255;BME280;11296;42.684;23.322;2022-09-09T05:29:35;95409.63;;;18.70;100.00
22255;BME280;11296;42.684;23.322;2022-09-09T05:36:03;95396.41;;;18.56;100.00
22255;BME280;11296;42.684;23.322;2022-09-09T05:38:30;95434.09;;;18.76;100.00
22255;BME280;11296;42.684;23.322;2022-09-09T05:40:59;95404.69;;;18.69;100.00
22255;BME280;11296;42.684;23.322;2022-09-09T05:43:32;95397.34;;;18.82;100.00
22255;BME280;11296;42.684;23.322;2022-09-09T05:46:22;95427.75;;;19.10;100.00
22255;BME280;11296;42.684;23.322;2022-09-09T05:52:23;95437.66;;;19.32;100.00
22255;BME280;11296;42.684;23.322;2022-09-09T05:54:54;95391.16;;;19.24;100.00
22255;BME280;11296;42.684;23.322;2022-09-09T05:57:27;95440.97;;;19.49;100.00
22255;BME280;11296;42.684;23.322;2022-09-09T05:59:59;95422.78;;;19.33;100.00
22255;BME280;11296;42.684;23.322;2022-09-09T06:03:00;95380.66;;;19.29;100.00
22255;BME280;11296;42.684;23.322;2022-09-09T06:05:29;95425.63;;;19.65;100.00
22255;BME280;11296;42.684;23.322;2022-09-09T06:08:00;95418.22;;;19.60;100.00
22255;BME280;11296;42.684;23.322;2022-09-09T06:10:33;95451.72;;;19.79;100.00
22255;BME280;11296;42.684;23.322;2022-09-09T06:13:02;95417.66;;;19.67;100.00
22255;BME280;11296;42.684;23.322;2022-09-09T06:15:29;95412.53;;;19.76;100.00
22255;BME280;11296;42.684;23.322;2022-09-09T06:22:16;95379.78;;;19.76;100.00
22255;BME280;11296;42.684;23.322;2022-09-09T06:29:09;95448.13;;;20.53;100.00
22255;BME280;11296;42.684;23.322;2022-09-09T06:35:05;95422.88;;;20.60;100.00
22255;BME280;11296;42.684;23.322;2022-09-09T06:37:34;95368.19;;;20.34;100.00
22255;BME280;11296;42.684;23.322;2022-09-09T06:40:10;95380.00;;;20.55;100.00
22255;BME280;11296;42.684;23.322;2022-09-09T06:43:48;95393.47;;;20.66;100.00
22255;BME280;11296;42.684;23.322;2022-09-09T06:46:32;95397.44;;;20.78;100.00
22255;BME280;11296;42.684;23.322;2022-09-09T06:49:14;95388.22;;;20.81;100.00
22255;BME280;11296;42.684;23.322;2022-09-09T06:52:11;95415.56;;;21.07;100.00
22255;BME280;11296;42.684;23.322;2022-09-09T06:54:48;95401.03;;;20.99;100.00
22255;BME280;11296;42.684;23.322;2022-09-09T06:57:30;95405.66;;;21.17;100.00
22255;BME280;11296;42.684;23.322;2022-09-09T07:04:08;95421.41;;;21.37;100.00
22255;BME280;11296;42.684;23.322;2022-09-09T07:11:02;95426.03;;;21.56;100.00
22255;BME280;11296;42.684;23.322;2022-09-09T07:13:50;95406.31;;;21.57;100.00
22255;BME280;11296;42.684;23.322;2022-09-09T07:16:35;95388.22;;;21.54;100.00
22255;BME280;11296;42.684;23.322;2022-09-09T07:19:30;95399.53;;;21.71;100.00
22255;BME280;11296;42.684;23.322;2022-09-09T07:22:26;95403.09;;;21.79;100.00
22255;BME280;11296;42.684;23.322;2022-09-09T07:25:12;95375.09;;;21.73;100.00
22255;BME280;11296;42.684;23.322;2022-09-09T07:27:59;95381.13;;;21.72;100.00
22255;BME280;11296;42.684;23.322;2022-09-09T07:30:32;95409.34;;;22.21;100.00
22255;BME280;11296;42.684;23.322;2022-09-09T07:33:53;95405.94;;;22.28;100.00
22255;BME280;11296;42.684;23.322;2022-09-09T07:36:30;95386.13;;;22.43;100.00
22255;BME280;11296;42.684;23.322;2022-09-09T07:39:10;95371.44;;;22.53;100.00
22255;BME280;11296;42.684;23.322;2022-09-09T07:42:35;95434.94;;;22.85;100.00
22255;BME280;11296;42.684;23.322;2022-09-09T07:46:06;95389.97;;;22.89;100.00
22255;BME280;11296;42.684;23.322;2022-09-09T07:52:33;95439.69;;;23.49;100.00
22255;BME280;11296;42.684;23.322;2022-09-09T07:58:28;95403.88;;;23.77;100.00
22255;BME280;11296;42.684;23.322;2022-09-09T08:04:17;95399.22;;;24.46;100.00
22255;BME280;11296;42.684;23.322;2022-09-09T08:07:08;95399.97;;;24.84;100.00
22255;BME280;11296;42.684;23.322;2022-09-09T08:09:54;95395.38;;;24.64;98.93
22255;BME280;11296;42.684;23.322;2022-09-09T08:12:34;95372.84;;;24.80;96.71
22255;BME280;11296;42.684;23.322;2022-09-09T08:19:25;95422.03;;;25.46;91.55
22255;BME280;11296;42.684;23.322;2022-09-09T08:22:26;95368.97;;;25.46;88.25
22255;BME280;11296;42.684;23.322;2022-09-09T08:29:28;95421.69;;;26.88;77.96
22255;BME280;11296;42.684;23.322;2022-09-09T08:40:33;95397.28;;;26.60;79.96
22255;BME280;11296;42.684;23.322;2022-09-09T08:43:38;95419.09;;;26.90;79.83
22255;BME280;11296;42.684;23.322;2022-09-09T09:11:04;95371.53;;;27.77;67.95
22255;BME280;11296;42.684;23.322;2022-09-09T09:14:03;95396.53;;;28.69;65.10
22255;BME280;11296;42.684;23.322;2022-09-09T09:17:00;95387.09;;;28.72;63.66
22255;BME280;11296;42.684;23.322;2022-09-09T09:19:41;95406.84;;;29.33;60.99
22255;BME280;11296;42.684;23.322;2022-09-09T09:22:55;95400.00;;;29.25;61.40
22255;BME280;11296;42.684;23.322;2022-09-09T09:25:44;95402.03;;;29.53;59.62
22255;BME280;11296;42.684;23.322;2022-09-09T09:28:27;95373.41;;;28.84;62.33
22255;BME280;11296;42.684;23.322;2022-09-09T09:31:12;95401.59;;;29.28;61.58
22255;BME280;11296;42.684;23.322;2022-09-09T09:33:56;95371.34;;;28.75;64.18
22255;BME280;11296;42.684;23.322;2022-09-09T09:37:07;95362.56;;;28.13;67.00
22255;BME280;11296;42.684;23.322;2022-09-09T09:39:41;95345.72;;;28.84;65.01
22255;BME280;11296;42.684;23.322;2022-09-09T09:43:01;95325.53;;;29.69;57.45
22255;BME280;11296;42.684;23.322;2022-09-09T09:53:28;95355.75;;;30.25;55.86
22255;BME280;11296;42.684;23.322;2022-09-09T09:56:28;95337.66;;;29.64;56.93
22255;BME280;11296;42.684;23.322;2022-09-09T09:59:32;95343.41;;;29.28;58.31
22255;BME280;11296;42.684;23.322;2022-09-09T10:02:31;95337.72;;;28.32;61.19
22255;BME280;11296;42.684;23.322;2022-09-09T10:05:29;95314.06;;;28.68;61.86
22255;BME280;11296;42.684;23.322;2022-09-09T10:08:15;95373.44;;;29.03;61.00
22255;BME280;11296;42.684;23.322;2022-09-09T10:19:06;95329.31;;;28.04;66.89
22255;BME280;11296;42.684;23.322;2022-09-09T10:27:15;95355.66;;;27.17;73.26
22255;BME280;11296;42.684;23.322;2022-09-09T10:29:57;95372.19;;;27.07;76.91
22255;BME280;11296;42.684;23.322;2022-09-09T10:32:38;95363.34;;;26.92;77.84
22255;BME280;11296;42.684;23.322;2022-09-09T10:35:12;95384.69;;;27.08;78.93
22255;BME280;11296;42.684;23.322;2022-09-09T10:41:40;95390.44;;;27.20;82.31
22255;BME280;11296;42.684;23.322;2022-09-09T10:44:45;95347.88;;;26.89;78.89
22255;BME280;11296;42.684;23.322;2022-09-09T11:04:45;95334.91;;;26.82;79.91
22255;BME280;11296;42.684;23.322;2022-09-09T11:07:58;95383.63;;;27.04;83.23
22255;BME280;11296;42.684;23.322;2022-09-09T11:13:30;95345.31;;;26.66;85.28
22255;BME280;11296;42.684;23.322;2022-09-09T11:17:01;95385.41;;;27.09;83.02
22255;BME280;11296;42.684;23.322;2022-09-09T11:19:55;95363.72;;;27.23;81.92
22255;BME280;11296;42.684;23.322;2022-09-09T11:30:19;95364.94;;;27.46;84.04
22255;BME280;11296;42.684;23.322;2022-09-09T11:33:55;95355.09;;;27.53;86.48
22255;BME280;11296;42.684;23.322;2022-09-09T11:41:14;95317.16;;;27.89;87.30
22255;BME280;11296;42.684;23.322;2022-09-09T13:11:54;95231.03;;;29.96;66.20
22255;BME280;11296;42.684;23.322;2022-09-09T13:54:40;95195.41;;;29.12;79.95
22255;BME280;11296;42.684;23.322;2022-09-09T22:02:33;95172.75;;;20.80;100.00
22255;BME280;11296;42.684;23.322;2022-09-09T22:05:21;95229.59;;;21.28;100.00
22255;BME280;11296;42.684;23.322;2022-09-09T22:08:12;95237.06;;;21.27;100.00
22255;BME280;11296;42.684;23.322;2022-09-09T22:10:54;95179.41;;;20.92;100.00
22255;BME280;11296;42.684;23.322;2022-09-09T22:13:36;95177.22;;;20.90;100.00
22255;BME280;11296;42.684;23.322;2022-09-09T22:19:13;95183.16;;;21.02;100.00
22255;BME280;11296;42.684;23.322;2022-09-09T22:21:59;95204.63;;;20.98;100.00
22255;BME280;11296;42.684;23.322;2022-09-09T22:24:31;95171.59;;;20.75;100.00
22255;BME280;11296;42.684;23.322;2022-09-09T22:27:01;95201.91;;;20.98;100.00
22255;BME280;11296;42.684;23.322;2022-09-09T22:30:06;95166.13;;;20.75;100.00
22255;BME280;11296;42.684;23.322;2022-09-09T22:32:37;95150.59;;;20.70;100.00
22255;BME280;11296;42.684;23.322;2022-09-09T22:35:16;95194.03;;;20.94;100.00
22255;BME280;11296;42.684;23.322;2022-09-09T22:38:00;95196.34;;;21.03;100.00
22255;BME280;11296;42.684;23.322;2022-09-09T22:40:36;95156.75;;;20.84;100.00
22255;BME280;11296;42.684;23.322;2022-09-09T23:01:38;95201.56;;;21.14;100.00
22255;BME280;11296;42.684;23.322;2022-09-09T23:12:36;95210.50;;;21.02;100.00
22255;BME280;11296;42.684;23.322;2022-09-09T23:15:40;95198.03;;;20.93;100.00
22255;BME280;11296;42.684;23.322;2022-09-09T23:22:03;95156.84;;;20.78;100.00
22255;BME280;11296;42.684;23.322;2022-09-09T23:28:57;95136.19;;;20.69;100.00
22255;BME280;11296;42.684;23.322;2022-09-09T23:32:27;95143.94;;;20.79;100.00
22255;BME280;11296;42.684;23.322;2022-09-09T23:35:39;95185.16;;;21.14;100.00
22255;BME280;11296;42.684;23.322;2022-09-09T23:38:59;95167.91;;;21.06;100.00
22255;BME280;11296;42.684;23.322;2022-09-09T23:41:41;95131.44;;;20.70;100.00
